sensor_id;sensor_type;location;lat;lon;timestamp;temperature;humidity
27544;DHT22;17996;51.056;3.656;2023-05-07T00:02:22;17.80;99.90
27544;DHT22;17996;51.056;3.656;2023-05-07T00:04:48;17.80;99.90
27544;DHT22;17996;51.056;3.656;2023-05-07T00:07:14;17.80;99.90
27544;DHT22;17996;51.056;3.656;2023-05-07T00:09:40;17.80;99.90
27544;DHT22;17996;51.056;3.656;2023-05-07T00:12:06;17.80;99.90
27544;DHT22;17996;51.056;3.656;2023-05-07T00:14:32;17.80;99.90
27544;DHT22;17996;51.056;3.656;2023-05-07T00:16:58;17.80;99.90
27544;DHT22;17996;51.056;3.656;2023-05-07T00:19:24;17.80;99.90
27544;DHT22;17996;51.056;3.656;2023-05-07T00:21:49;17.80;99.90
27544;DHT22;17996;51.056;3.656;2023-05-07T00:24:15;17.80;99.90
27544;DHT22;17996;51.056;3.656;2023-05-07T00:26:41;17.80;99.90
27544;DHT22;17996;51.056;3.656;2023-05-07T00:29:07;17.80;99.90
27544;DHT22;17996;51.056;3.656;2023-05-07T00:31:32;17.80;99.90
27544;DHT22;17996;51.056;3.656;2023-05-07T00:33:58;17.70;99.90
27544;DHT22;17996;51.056;3.656;2023-05-07T00:36:24;17.70;99.90
27544;DHT22;17996;51.056;3.656;2023-05-07T00:38:49;17.70;99.90
27544;DHT22;17996;51.056;3.656;2023-05-07T00:41:15;17.70;99.90
27544;DHT22;17996;51.056;3.656;2023-05-07T00:43:41;17.70;99.90
27544;DHT22;17996;51.056;3.656;2023-05-07T00:46:06;17.60;99.90
27544;DHT22;17996;51.056;3.656;2023-05-07T00:48:32;17.70;99.90
27544;DHT22;17996;51.056;3.656;2023-05-07T00:50:58;17.60;99.90
27544;DHT22;17996;51.056;3.656;2023-05-07T00:53:24;17.60;99.90
27544;DHT22;17996;51.056;3.656;2023-05-07T00:55:50;17.60;99.90
27544;DHT22;17996;51.056;3.656;2023-05-07T00:58:16;17.60;99.90
27544;DHT22;17996;51.056;3.656;2023-05-07T01:00:42;17.60;99.90
27544;DHT22;17996;51.056;3.656;2023-05-07T01:03:08;17.60;99.90
27544;DHT22;17996;51.056;3.656;2023-05-07T01:05:34;17.60;99.90
27544;DHT22;17996;51.056;3.656;2023-05-07T01:08:01;17.50;99.90
27544;DHT22;17996;51.056;3.656;2023-05-07T01:10:28;17.50;99.90
27544;DHT22;17996;51.056;3.656;2023-05-07T01:12:57;17.50;99.90
27544;DHT22;17996;51.056;3.656;2023-05-07T01:15:24;17.50;99.90
27544;DHT22;17996;51.056;3.656;2023-05-07T01:17:49;17.40;99.90
27544;DHT22;17996;51.056;3.656;2023-05-07T01:20:15;17.40;99.90
27544;DHT22;17996;51.056;3.656;2023-05-07T01:22:42;17.40;99.90
27544;DHT22;17996;51.056;3.656;2023-05-07T01:25:08;17.40;99.90
27544;DHT22;17996;51.056;3.656;2023-05-07T01:27:35;17.40;99.90
27544;DHT22;17996;51.056;3.656;2023-05-07T01:30:02;17.40;99.90
27544;DHT22;17996;51.056;3.656;2023-05-07T01:32:49;17.40;99.90
27544;DHT22;17996;51.056;3.656;2023-05-07T01:35:22;17.40;99.90
27544;DHT22;17996;51.056;3.656;2023-05-07T01:37:48;17.40;99.90
27544;DHT22;17996;51.056;3.656;2023-05-07T01:40:14;17.40;99.90
27544;DHT22;17996;51.056;3.656;2023-05-07T01:42:42;17.40;99.90
27544;DHT22;17996;51.056;3.656;2023-05-07T01:45:09;17.40;99.90
27544;DHT22;17996;51.056;3.656;2023-05-07T01:47:36;17.40;99.90
27544;DHT22;17996;51.056;3.656;2023-05-07T01:50:04;17.40;99.90
27544;DHT22;17996;51.056;3.656;2023-05-07T01:52:31;17.30;99.90
27544;DHT22;17996;51.056;3.656;2023-05-07T01:54:57;17.30;99.90
27544;DHT22;17996;51.056;3.656;2023-05-07T01:57:22;17.30;99.90
27544;DHT22;17996;51.056;3.656;2023-05-07T01:59:48;17.30;99.90
27544;DHT22;17996;51.056;3.656;2023-05-07T02:02:14;17.30;99.90
27544;DHT22;17996;51.056;3.656;2023-05-07T02:04:39;17.20;99.90
27544;DHT22;17996;51.056;3.656;2023-05-07T02:07:05;17.20;99.90
27544;DHT22;17996;51.056;3.656;2023-05-07T02:09:31;17.20;99.90
27544;DHT22;17996;51.056;3.656;2023-05-07T02:11:57;17.10;99.90
27544;DHT22;17996;51.056;3.656;2023-05-07T02:14:22;17.20;99.90
27544;DHT22;17996;51.056;3.656;2023-05-07T02:16:48;17.10;99.90
27544;DHT22;17996;51.056;3.656;2023-05-07T02:19:14;17.10;99.90
27544;DHT22;17996;51.056;3.656;2023-05-07T02:21:39;17.00;99.90
27544;DHT22;17996;51.056;3.656;2023-05-07T02:24:05;17.00;99.90
27544;DHT22;17996;51.056;3.656;2023-05-07T02:26:31;17.00;99.90
27544;DHT22;17996;51.056;3.656;2023-05-07T02:28:57;17.00;99.90
27544;DHT22;17996;51.056;3.656;2023-05-07T02:31:22;16.90;99.90
27544;DHT22;17996;51.056;3.656;2023-05-07T02:33:48;16.90;99.90
27544;DHT22;17996;51.056;3.656;2023-05-07T02:36:14;16.90;99.90
27544;DHT22;17996;51.056;3.656;2023-05-07T02:38:39;16.90;99.90
27544;DHT22;17996;51.056;3.656;2023-05-07T02:41:05;16.90;99.90
27544;DHT22;17996;51.056;3.656;2023-05-07T02:43:31;16.90;99.90
27544;DHT22;17996;51.056;3.656;2023-05-07T02:46:04;16.90;99.90
27544;DHT22;17996;51.056;3.656;2023-05-07T02:48:30;16.90;99.90
27544;DHT22;17996;51.056;3.656;2023-05-07T02:50:55;16.90;99.90
27544;DHT22;17996;51.056;3.656;2023-05-07T02:53:22;16.80;99.90
27544;DHT22;17996;51.056;3.656;2023-05-07T02:55:50;16.80;99.90
27544;DHT22;17996;51.056;3.656;2023-05-07T02:58:16;16.80;99.90
27544;DHT22;17996;51.056;3.656;2023-05-07T03:00:42;16.80;99.90
27544;DHT22;17996;51.056;3.656;2023-05-07T03:03:07;16.80;99.90
27544;DHT22;17996;51.056;3.656;2023-05-07T03:05:33;16.80;99.90
27544;DHT22;17996;51.056;3.656;2023-05-07T03:07:59;16.80;99.90
27544;DHT22;17996;51.056;3.656;2023-05-07T03:10:24;16.80;99.90
27544;DHT22;17996;51.056;3.656;2023-05-07T03:12:50;16.80;99.90
27544;DHT22;17996;51.056;3.656;2023-05-07T03:15:16;16.80;99.90
27544;DHT22;17996;51.056;3.656;2023-05-07T03:17:42;16.80;99.90
27544;DHT22;17996;51.056;3.656;2023-05-07T03:20:08;16.80;99.90
27544;DHT22;17996;51.056;3.656;2023-05-07T03:22:35;16.80;99.90
27544;DHT22;17996;51.056;3.656;2023-05-07T03:25:00;16.80;99.90
27544;DHT22;17996;51.056;3.656;2023-05-07T03:27:26;16.80;99.90
27544;DHT22;17996;51.056;3.656;2023-05-07T03:29:52;16.80;99.90
27544;DHT22;17996;51.056;3.656;2023-05-07T03:32:17;16.70;99.90
27544;DHT22;17996;51.056;3.656;2023-05-07T03:34:43;16.80;99.90
27544;DHT22;17996;51.056;3.656;2023-05-07T03:37:08;16.80;99.90
27544;DHT22;17996;51.056;3.656;2023-05-07T03:39:34;16.70;99.90
27544;DHT22;17996;51.056;3.656;2023-05-07T03:42:00;16.70;99.90
27544;DHT22;17996;51.056;3.656;2023-05-07T03:44:26;16.70;99.90
27544;DHT22;17996;51.056;3.656;2023-05-07T03:46:52;16.70;99.90
27544;DHT22;17996;51.056;3.656;2023-05-07T03:49:17;16.70;99.90
27544;DHT22;17996;51.056;3.656;2023-05-07T03:51:43;16.70;99.90
27544;DHT22;17996;51.056;3.656;2023-05-07T03:54:09;16.70;99.90
27544;DHT22;17996;51.056;3.656;2023-05-07T03:56:34;16.70;99.90
27544;DHT22;17996;51.056;3.656;2023-05-07T03:59:00;16.70;99.90
27544;DHT22;17996;51.056;3.656;2023-05-07T04:01:27;16.70;99.90
27544;DHT22;17996;51.056;3.656;2023-05-07T04:03:52;16.70;99.90
27544;DHT22;17996;51.056;3.656;2023-05-07T04:06:18;16.60;99.90
27544;DHT22;17996;51.056;3.656;2023-05-07T04:08:44;16.60;99.90
27544;DHT22;17996;51.056;3.656;2023-05-07T04:11:09;16.70;99.90
27544;DHT22;17996;51.056;3.656;2023-05-07T04:13:35;16.80;99.90
27544;DHT22;17996;51.056;3.656;2023-05-07T04:16:02;16.80;99.90
27544;DHT22;17996;51.056;3.656;2023-05-07T04:18:28;16.80;99.90
27544;DHT22;17996;51.056;3.656;2023-05-07T04:20:54;16.80;99.90
27544;DHT22;17996;51.056;3.656;2023-05-07T04:23:20;16.80;99.90
27544;DHT22;17996;51.056;3.656;2023-05-07T04:25:46;16.80;99.90
27544;DHT22;17996;51.056;3.656;2023-05-07T04:28:12;16.80;99.90
27544;DHT22;17996;51.056;3.656;2023-05-07T04:30:38;16.80;99.90
27544;DHT22;17996;51.056;3.656;2023-05-07T04:33:04;16.80;99.90
27544;DHT22;17996;51.056;3.656;2023-05-07T04:35:29;16.80;99.90
27544;DHT22;17996;51.056;3.656;2023-05-07T04:37:55;16.80;99.90
27544;DHT22;17996;51.056;3.656;2023-05-07T04:40:21;16.90;99.90
27544;DHT22;17996;51.056;3.656;2023-05-07T04:42:46;16.90;99.90
27544;DHT22;17996;51.056;3.656;2023-05-07T04:45:12;16.90;99.90
27544;DHT22;17996;51.056;3.656;2023-05-07T04:47:38;16.90;99.90
27544;DHT22;17996;51.056;3.656;2023-05-07T04:50:05;16.90;99.90
27544;DHT22;17996;51.056;3.656;2023-05-07T04:52:31;16.90;99.90
27544;DHT22;17996;51.056;3.656;2023-05-07T04:54:59;16.90;99.90
27544;DHT22;17996;51.056;3.656;2023-05-07T04:57:25;17.00;99.90
27544;DHT22;17996;51.056;3.656;2023-05-07T04:59:52;17.00;99.90
27544;DHT22;17996;51.056;3.656;2023-05-07T05:02:18;17.00;99.90
27544;DHT22;17996;51.056;3.656;2023-05-07T05:04:43;17.00;99.90
27544;DHT22;17996;51.056;3.656;2023-05-07T05:07:09;17.00;99.90
27544;DHT22;17996;51.056;3.656;2023-05-07T05:09:35;17.00;99.90
27544;DHT22;17996;51.056;3.656;2023-05-07T05:12:00;17.00;99.90
27544;DHT22;17996;51.056;3.656;2023-05-07T05:14:26;17.10;99.90
27544;DHT22;17996;51.056;3.656;2023-05-07T05:16:52;17.00;99.90
27544;DHT22;17996;51.056;3.656;2023-05-07T05:19:17;17.10;99.90
27544;DHT22;17996;51.056;3.656;2023-05-07T05:21:43;17.10;99.90
27544;DHT22;17996;51.056;3.656;2023-05-07T05:24:09;17.10;99.90
27544;DHT22;17996;51.056;3.656;2023-05-07T05:26:34;17.10;99.90
27544;DHT22;17996;51.056;3.656;2023-05-07T05:29:00;17.10;99.90
27544;DHT22;17996;51.056;3.656;2023-05-07T05:31:26;17.10;99.90
27544;DHT22;17996;51.056;3.656;2023-05-07T05:33:52;17.10;99.90
27544;DHT22;17996;51.056;3.656;2023-05-07T05:36:17;17.10;99.90
27544;DHT22;17996;51.056;3.656;2023-05-07T05:38:43;17.10;99.90
27544;DHT22;17996;51.056;3.656;2023-05-07T05:41:10;17.10;99.90
27544;DHT22;17996;51.056;3.656;2023-05-07T05:43:36;17.10;99.90
27544;DHT22;17996;51.056;3.656;2023-05-07T05:46:01;17.10;99.90
27544;DHT22;17996;51.056;3.656;2023-05-07T05:48:29;17.20;99.90
27544;DHT22;17996;51.056;3.656;2023-05-07T05:50:55;17.20;99.90
27544;DHT22;17996;51.056;3.656;2023-05-07T05:53:20;17.20;99.90
27544;DHT22;17996;51.056;3.656;2023-05-07T05:55:46;17.20;99.90
27544;DHT22;17996;51.056;3.656;2023-05-07T05:58:12;17.20;99.90
27544;DHT22;17996;51.056;3.656;2023-05-07T06:00:38;17.20;99.90
27544;DHT22;17996;51.056;3.656;2023-05-07T06:03:03;17.30;99.90
27544;DHT22;17996;51.056;3.656;2023-05-07T06:05:29;17.30;99.90
27544;DHT22;17996;51.056;3.656;2023-05-07T06:07:55;17.30;99.90
27544;DHT22;17996;51.056;3.656;2023-05-07T06:10:21;17.40;99.90
27544;DHT22;17996;51.056;3.656;2023-05-07T06:12:47;17.40;99.90
27544;DHT22;17996;51.056;3.656;2023-05-07T06:15:12;17.40;99.90
27544;DHT22;17996;51.056;3.656;2023-05-07T06:17:38;17.40;99.90
27544;DHT22;17996;51.056;3.656;2023-05-07T06:20:04;17.40;99.90
27544;DHT22;17996;51.056;3.656;2023-05-07T06:22:30;17.40;99.90
27544;DHT22;17996;51.056;3.656;2023-05-07T06:24:56;17.40;99.90
27544;DHT22;17996;51.056;3.656;2023-05-07T06:27:21;17.40;99.90
27544;DHT22;17996;51.056;3.656;2023-05-07T06:29:48;17.40;99.90
27544;DHT22;17996;51.056;3.656;2023-05-07T06:32:14;17.50;99.90
27544;DHT22;17996;51.056;3.656;2023-05-07T06:34:40;17.50;99.90
27544;DHT22;17996;51.056;3.656;2023-05-07T06:37:06;17.50;99.90
27544;DHT22;17996;51.056;3.656;2023-05-07T06:39:32;17.40;99.90
27544;DHT22;17996;51.056;3.656;2023-05-07T06:41:59;17.40;99.90
27544;DHT22;17996;51.056;3.656;2023-05-07T06:44:25;17.40;99.90
27544;DHT22;17996;51.056;3.656;2023-05-07T06:46:51;17.30;99.90
27544;DHT22;17996;51.056;3.656;2023-05-07T06:49:17;17.40;99.90
27544;DHT22;17996;51.056;3.656;2023-05-07T06:51:42;17.40;99.90
27544;DHT22;17996;51.056;3.656;2023-05-07T06:54:08;17.40;99.90
27544;DHT22;17996;51.056;3.656;2023-05-07T06:56:34;17.40;99.90
27544;DHT22;17996;51.056;3.656;2023-05-07T06:59:01;17.40;99.90
27544;DHT22;17996;51.056;3.656;2023-05-07T07:01:28;17.40;99.90
27544;DHT22;17996;51.056;3.656;2023-05-07T07:03:54;17.40;99.90
27544;DHT22;17996;51.056;3.656;2023-05-07T07:06:19;17.50;99.90
27544;DHT22;17996;51.056;3.656;2023-05-07T07:08:45;17.50;99.90
27544;DHT22;17996;51.056;3.656;2023-05-07T07:11:11;17.50;99.90
27544;DHT22;17996;51.056;3.656;2023-05-07T07:13:37;17.50;99.90
27544;DHT22;17996;51.056;3.656;2023-05-07T07:16:03;17.50;99.90
27544;DHT22;17996;51.056;3.656;2023-05-07T07:18:28;17.60;99.90
27544;DHT22;17996;51.056;3.656;2023-05-07T07:20:54;17.60;99.90
27544;DHT22;17996;51.056;3.656;2023-05-07T07:23:20;17.60;99.90
27544;DHT22;17996;51.056;3.656;2023-05-07T07:25:46;17.60;99.90
27544;DHT22;17996;51.056;3.656;2023-05-07T07:28:12;17.70;99.90
27544;DHT22;17996;51.056;3.656;2023-05-07T07:30:38;17.70;99.90
27544;DHT22;17996;51.056;3.656;2023-05-07T07:33:04;17.80;99.90
27544;DHT22;17996;51.056;3.656;2023-05-07T07:35:31;17.80;99.90
27544;DHT22;17996;51.056;3.656;2023-05-07T07:37:57;17.80;99.90
27544;DHT22;17996;51.056;3.656;2023-05-07T07:40:23;17.80;99.90
27544;DHT22;17996;51.056;3.656;2023-05-07T07:42:48;17.80;99.90
27544;DHT22;17996;51.056;3.656;2023-05-07T07:45:14;17.80;99.90
27544;DHT22;17996;51.056;3.656;2023-05-07T07:47:40;17.90;99.90
27544;DHT22;17996;51.056;3.656;2023-05-07T07:50:07;18.00;99.90
27544;DHT22;17996;51.056;3.656;2023-05-07T07:52:33;18.00;99.90
27544;DHT22;17996;51.056;3.656;2023-05-07T07:54:59;18.00;99.90
27544;DHT22;17996;51.056;3.656;2023-05-07T07:57:24;18.00;99.90
27544;DHT22;17996;51.056;3.656;2023-05-07T07:59:50;18.10;99.90
27544;DHT22;17996;51.056;3.656;2023-05-07T08:02:17;18.20;99.90
27544;DHT22;17996;51.056;3.656;2023-05-07T08:04:42;18.20;99.90
27544;DHT22;17996;51.056;3.656;2023-05-07T08:07:11;18.20;99.90
27544;DHT22;17996;51.056;3.656;2023-05-07T08:09:37;18.20;99.90
27544;DHT22;17996;51.056;3.656;2023-05-07T08:12:04;18.30;99.90
27544;DHT22;17996;51.056;3.656;2023-05-07T08:14:30;18.30;99.90
27544;DHT22;17996;51.056;3.656;2023-05-07T08:16:56;18.30;99.90
27544;DHT22;17996;51.056;3.656;2023-05-07T08:19:21;18.40;99.90
27544;DHT22;17996;51.056;3.656;2023-05-07T08:21:48;18.40;99.90
27544;DHT22;17996;51.056;3.656;2023-05-07T08:24:17;18.40;99.90
27544;DHT22;17996;51.056;3.656;2023-05-07T08:26:44;18.40;99.90
27544;DHT22;17996;51.056;3.656;2023-05-07T08:29:10;18.50;99.90
27544;DHT22;17996;51.056;3.656;2023-05-07T08:31:36;18.50;99.90
27544;DHT22;17996;51.056;3.656;2023-05-07T08:34:03;18.50;99.90
27544;DHT22;17996;51.056;3.656;2023-05-07T08:36:29;18.60;99.90
27544;DHT22;17996;51.056;3.656;2023-05-07T08:38:55;18.60;99.90
27544;DHT22;17996;51.056;3.656;2023-05-07T08:41:20;18.70;99.90
27544;DHT22;17996;51.056;3.656;2023-05-07T08:43:50;18.70;99.90
27544;DHT22;17996;51.056;3.656;2023-05-07T08:46:22;18.80;99.90
27544;DHT22;17996;51.056;3.656;2023-05-07T08:48:51;18.80;99.90
27544;DHT22;17996;51.056;3.656;2023-05-07T08:51:21;18.90;99.90
27544;DHT22;17996;51.056;3.656;2023-05-07T08:53:48;18.90;99.90
27544;DHT22;17996;51.056;3.656;2023-05-07T08:56:15;19.00;99.90
27544;DHT22;17996;51.056;3.656;2023-05-07T08:58:42;19.10;99.90
27544;DHT22;17996;51.056;3.656;2023-05-07T09:01:10;19.10;99.90
27544;DHT22;17996;51.056;3.656;2023-05-07T09:03:38;19.20;99.90
27544;DHT22;17996;51.056;3.656;2023-05-07T09:06:05;19.20;99.90
27544;DHT22;17996;51.056;3.656;2023-05-07T09:08:33;19.30;99.90
27544;DHT22;17996;51.056;3.656;2023-05-07T09:10:59;19.30;99.90
27544;DHT22;17996;51.056;3.656;2023-05-07T09:13:24;19.40;99.90
27544;DHT22;17996;51.056;3.656;2023-05-07T09:15:50;19.40;99.90
27544;DHT22;17996;51.056;3.656;2023-05-07T09:18:16;19.50;99.90
27544;DHT22;17996;51.056;3.656;2023-05-07T09:20:42;19.50;99.90
27544;DHT22;17996;51.056;3.656;2023-05-07T09:23:09;19.60;99.90
27544;DHT22;17996;51.056;3.656;2023-05-07T09:25:35;19.70;99.90
27544;DHT22;17996;51.056;3.656;2023-05-07T09:28:03;19.70;99.90
27544;DHT22;17996;51.056;3.656;2023-05-07T09:30:33;19.70;99.90
27544;DHT22;17996;51.056;3.656;2023-05-07T09:33:00;19.80;99.90
27544;DHT22;17996;51.056;3.656;2023-05-07T09:35:26;19.90;99.90
27544;DHT22;17996;51.056;3.656;2023-05-07T09:37:55;20.00;99.90
27544;DHT22;17996;51.056;3.656;2023-05-07T09:40:26;20.00;99.90
27544;DHT22;17996;51.056;3.656;2023-05-07T09:42:53;20.10;99.90
27544;DHT22;17996;51.056;3.656;2023-05-07T09:45:28;20.20;99.90
27544;DHT22;17996;51.056;3.656;2023-05-07T09:47:58;20.30;99.90
27544;DHT22;17996;51.056;3.656;2023-05-07T09:50:30;20.40;99.90
27544;DHT22;17996;51.056;3.656;2023-05-07T09:52:58;20.40;99.90
27544;DHT22;17996;51.056;3.656;2023-05-07T09:55:24;20.50;99.90
27544;DHT22;17996;51.056;3.656;2023-05-07T09:57:51;20.60;99.90
27544;DHT22;17996;51.056;3.656;2023-05-07T10:00:21;20.80;99.90
27544;DHT22;17996;51.056;3.656;2023-05-07T10:02:49;20.90;99.90
27544;DHT22;17996;51.056;3.656;2023-05-07T10:05:17;20.90;99.90
27544;DHT22;17996;51.056;3.656;2023-05-07T10:07:44;21.00;99.90
27544;DHT22;17996;51.056;3.656;2023-05-07T10:10:10;21.10;99.90
27544;DHT22;17996;51.056;3.656;2023-05-07T10:12:36;21.20;99.90
27544;DHT22;17996;51.056;3.656;2023-05-07T10:15:11;21.40;99.90
27544;DHT22;17996;51.056;3.656;2023-05-07T10:17:41;21.50;99.90
27544;DHT22;17996;51.056;3.656;2023-05-07T10:20:07;21.60;99.90
27544;DHT22;17996;51.056;3.656;2023-05-07T10:22:40;21.60;99.90
27544;DHT22;17996;51.056;3.656;2023-05-07T10:27:46;21.80;99.90
27544;DHT22;17996;51.056;3.656;2023-05-07T10:33:25;21.90;99.90
27544;DHT22;17996;51.056;3.656;2023-05-07T10:35:57;21.90;99.90
27544;DHT22;17996;51.056;3.656;2023-05-07T10:38:24;22.00;99.90
27544;DHT22;17996;51.056;3.656;2023-05-07T10:40:51;22.20;99.90
27544;DHT22;17996;51.056;3.656;2023-05-07T10:43:17;22.30;99.90
27544;DHT22;17996;51.056;3.656;2023-05-07T10:45:42;22.40;99.90
27544;DHT22;17996;51.056;3.656;2023-05-07T10:48:15;22.60;99.90
27544;DHT22;17996;51.056;3.656;2023-05-07T10:50:42;22.60;99.90
27544;DHT22;17996;51.056;3.656;2023-05-07T10:53:26;22.60;99.90
27544;DHT22;17996;51.056;3.656;2023-05-07T10:58:45;22.80;99.90
27544;DHT22;17996;51.056;3.656;2023-05-07T11:01:11;22.80;99.90
27544;DHT22;17996;51.056;3.656;2023-05-07T11:04:16;22.80;99.90
27544;DHT22;17996;51.056;3.656;2023-05-07T11:15:03;22.70;99.90
27544;DHT22;17996;51.056;3.656;2023-05-07T11:17:30;22.60;99.90
27544;DHT22;17996;51.056;3.656;2023-05-07T11:20:01;22.50;99.90
27544;DHT22;17996;51.056;3.656;2023-05-07T11:25:02;22.50;99.90
27544;DHT22;17996;51.056;3.656;2023-05-07T11:27:28;22.40;99.90
27544;DHT22;17996;51.056;3.656;2023-05-07T11:29:55;22.30;99.90
27544;DHT22;17996;51.056;3.656;2023-05-07T11:32:27;22.20;99.90
27544;DHT22;17996;51.056;3.656;2023-05-07T11:34:54;22.20;99.90
27544;DHT22;17996;51.056;3.656;2023-05-07T11:37:21;22.10;99.90
27544;DHT22;17996;51.056;3.656;2023-05-07T11:39:48;22.00;99.90
27544;DHT22;17996;51.056;3.656;2023-05-07T11:42:28;21.90;99.90
27544;DHT22;17996;51.056;3.656;2023-05-07T11:44:54;22.00;99.90
27544;DHT22;17996;51.056;3.656;2023-05-07T11:47:20;21.90;99.90
27544;DHT22;17996;51.056;3.656;2023-05-07T11:49:48;21.90;99.90
27544;DHT22;17996;51.056;3.656;2023-05-07T11:52:14;21.90;99.90
27544;DHT22;17996;51.056;3.656;2023-05-07T11:54:40;21.90;99.90
27544;DHT22;17996;51.056;3.656;2023-05-07T11:57:06;21.90;99.90
27544;DHT22;17996;51.056;3.656;2023-05-07T11:59:39;21.80;99.90
27544;DHT22;17996;51.056;3.656;2023-05-07T12:02:06;21.90;99.90
27544;DHT22;17996;51.056;3.656;2023-05-07T12:04:32;21.90;99.90
27544;DHT22;17996;51.056;3.656;2023-05-07T12:06:58;21.90;99.90
27544;DHT22;17996;51.056;3.656;2023-05-07T12:09:24;22.10;99.90
27544;DHT22;17996;51.056;3.656;2023-05-07T12:11:51;22.20;99.90
27544;DHT22;17996;51.056;3.656;2023-05-07T12:14:17;22.30;99.90
27544;DHT22;17996;51.056;3.656;2023-05-07T12:16:44;22.40;99.90
27544;DHT22;17996;51.056;3.656;2023-05-07T12:19:11;22.60;99.90
27544;DHT22;17996;51.056;3.656;2023-05-07T12:21:40;22.70;99.90
27544;DHT22;17996;51.056;3.656;2023-05-07T12:24:06;22.90;99.90
27544;DHT22;17996;51.056;3.656;2023-05-07T12:26:40;23.00;99.90
27544;DHT22;17996;51.056;3.656;2023-05-07T12:29:06;23.20;99.90
27544;DHT22;17996;51.056;3.656;2023-05-07T12:31:32;23.40;99.90
27544;DHT22;17996;51.056;3.656;2023-05-07T12:33:58;23.50;99.90
27544;DHT22;17996;51.056;3.656;2023-05-07T12:36:23;23.50;99.90
27544;DHT22;17996;51.056;3.656;2023-05-07T12:38:50;23.50;99.90
27544;DHT22;17996;51.056;3.656;2023-05-07T12:41:16;23.50;99.90
27544;DHT22;17996;51.056;3.656;2023-05-07T12:43:45;23.50;99.90
27544;DHT22;17996;51.056;3.656;2023-05-07T12:46:11;23.60;99.90
27544;DHT22;17996;51.056;3.656;2023-05-07T12:48:46;23.70;99.90
27544;DHT22;17996;51.056;3.656;2023-05-07T12:51:11;23.80;99.90
27544;DHT22;17996;51.056;3.656;2023-05-07T12:53:42;23.80;99.90
27544;DHT22;17996;51.056;3.656;2023-05-07T12:56:08;23.70;99.90
27544;DHT22;17996;51.056;3.656;2023-05-07T12:58:35;23.60;99.90
27544;DHT22;17996;51.056;3.656;2023-05-07T13:01:05;23.50;99.90
27544;DHT22;17996;51.056;3.656;2023-05-07T13:03:34;23.50;99.90
27544;DHT22;17996;51.056;3.656;2023-05-07T13:06:05;23.50;99.90
27544;DHT22;17996;51.056;3.656;2023-05-07T13:08:34;23.50;99.90
27544;DHT22;17996;51.056;3.656;2023-05-07T13:11:02;23.50;99.90
27544;DHT22;17996;51.056;3.656;2023-05-07T13:13:32;23.40;99.90
27544;DHT22;17996;51.056;3.656;2023-05-07T13:15:58;23.40;99.90
27544;DHT22;17996;51.056;3.656;2023-05-07T13:18:25;23.40;99.90
27544;DHT22;17996;51.056;3.656;2023-05-07T13:20:51;23.30;99.90
27544;DHT22;17996;51.056;3.656;2023-05-07T13:23:17;23.20;99.90
27544;DHT22;17996;51.056;3.656;2023-05-07T13:25:43;23.00;99.90
27544;DHT22;17996;51.056;3.656;2023-05-07T13:28:08;22.90;99.90
27544;DHT22;17996;51.056;3.656;2023-05-07T13:30:34;22.80;99.90
27544;DHT22;17996;51.056;3.656;2023-05-07T13:33:00;22.70;99.90
27544;DHT22;17996;51.056;3.656;2023-05-07T13:35:26;22.60;99.90
27544;DHT22;17996;51.056;3.656;2023-05-07T13:37:52;22.50;99.90
27544;DHT22;17996;51.056;3.656;2023-05-07T13:40:18;22.40;99.90
27544;DHT22;17996;51.056;3.656;2023-05-07T13:42:44;22.20;99.90
27544;DHT22;17996;51.056;3.656;2023-05-07T13:45:10;22.10;99.90
27544;DHT22;17996;51.056;3.656;2023-05-07T13:47:42;22.00;99.90
27544;DHT22;17996;51.056;3.656;2023-05-07T13:50:11;21.80;99.90
27544;DHT22;17996;51.056;3.656;2023-05-07T13:52:41;21.60;99.90
27544;DHT22;17996;51.056;3.656;2023-05-07T13:55:11;21.50;99.90
27544;DHT22;17996;51.056;3.656;2023-05-07T13:57:37;21.40;99.90
27544;DHT22;17996;51.056;3.656;2023-05-07T14:00:04;21.20;99.90
27544;DHT22;17996;51.056;3.656;2023-05-07T14:02:31;21.10;99.90
27544;DHT22;17996;51.056;3.656;2023-05-07T14:04:56;20.80;99.90
27544;DHT22;17996;51.056;3.656;2023-05-07T14:07:22;20.60;99.90
27544;DHT22;17996;51.056;3.656;2023-05-07T14:09:48;20.30;99.90
27544;DHT22;17996;51.056;3.656;2023-05-07T14:12:14;20.10;99.90
27544;DHT22;17996;51.056;3.656;2023-05-07T14:14:39;20.00;99.90
27544;DHT22;17996;51.056;3.656;2023-05-07T14:17:05;19.90;99.90
27544;DHT22;17996;51.056;3.656;2023-05-07T14:19:31;19.90;99.90
27544;DHT22;17996;51.056;3.656;2023-05-07T14:21:56;19.90;99.90
27544;DHT22;17996;51.056;3.656;2023-05-07T14:24:23;19.90;99.90
27544;DHT22;17996;51.056;3.656;2023-05-07T14:26:49;19.90;99.90
27544;DHT22;17996;51.056;3.656;2023-05-07T14:29:15;19.90;99.90
27544;DHT22;17996;51.056;3.656;2023-05-07T14:31:44;19.90;99.90
27544;DHT22;17996;51.056;3.656;2023-05-07T14:34:10;19.90;99.90
27544;DHT22;17996;51.056;3.656;2023-05-07T14:36:35;20.00;99.90
27544;DHT22;17996;51.056;3.656;2023-05-07T14:39:01;20.10;99.90
27544;DHT22;17996;51.056;3.656;2023-05-07T14:41:27;20.20;99.90
27544;DHT22;17996;51.056;3.656;2023-05-07T14:43:53;20.30;99.90
27544;DHT22;17996;51.056;3.656;2023-05-07T14:46:19;20.40;99.90
27544;DHT22;17996;51.056;3.656;2023-05-07T14:48:45;20.50;99.90
27544;DHT22;17996;51.056;3.656;2023-05-07T14:51:14;20.70;99.90
27544;DHT22;17996;51.056;3.656;2023-05-07T14:53:41;20.70;99.90
27544;DHT22;17996;51.056;3.656;2023-05-07T14:56:07;20.80;99.90
27544;DHT22;17996;51.056;3.656;2023-05-07T14:58:33;21.00;99.90
27544;DHT22;17996;51.056;3.656;2023-05-07T15:01:00;21.10;99.90
27544;DHT22;17996;51.056;3.656;2023-05-07T15:03:26;21.20;99.90
27544;DHT22;17996;51.056;3.656;2023-05-07T15:05:51;21.40;99.90
27544;DHT22;17996;51.056;3.656;2023-05-07T15:08:17;21.50;99.90
27544;DHT22;17996;51.056;3.656;2023-05-07T15:10:43;21.70;99.90
27544;DHT22;17996;51.056;3.656;2023-05-07T15:13:10;21.90;99.90
27544;DHT22;17996;51.056;3.656;2023-05-07T15:15:37;22.20;99.90
27544;DHT22;17996;51.056;3.656;2023-05-07T15:18:03;22.50;99.90
27544;DHT22;17996;51.056;3.656;2023-05-07T15:20:29;22.90;99.90
27544;DHT22;17996;51.056;3.656;2023-05-07T15:22:55;23.20;99.90
27544;DHT22;17996;51.056;3.656;2023-05-07T15:25:22;23.30;99.90
27544;DHT22;17996;51.056;3.656;2023-05-07T15:27:47;23.40;99.90
27544;DHT22;17996;51.056;3.656;2023-05-07T15:30:13;23.40;99.90
27544;DHT22;17996;51.056;3.656;2023-05-07T15:32:40;23.30;99.90
27544;DHT22;17996;51.056;3.656;2023-05-07T15:35:07;23.20;99.90
27544;DHT22;17996;51.056;3.656;2023-05-07T15:37:33;23.20;99.90
27544;DHT22;17996;51.056;3.656;2023-05-07T15:39:59;23.00;99.90
27544;DHT22;17996;51.056;3.656;2023-05-07T15:42:26;22.90;99.90
27544;DHT22;17996;51.056;3.656;2023-05-07T15:44:52;22.70;99.90
27544;DHT22;17996;51.056;3.656;2023-05-07T15:47:18;22.50;99.90